createdAt,value
2022-09-18T06:26:15.229Z,10.83
2022-09-18T06:28:42.324Z,10.83
2022-09-18T06:31:10.740Z,10.83
2022-09-18T06:33:37.375Z,10.81
2022-09-18T06:36:08.308Z,10.73
2022-09-18T06:38:34.873Z,10.58
2022-09-18T06:41:01.612Z,10.51
2022-09-18T06:43:28.763Z,10.52
2022-09-18T06:45:56.673Z,10.54
2022-09-18T06:48:26.723Z,10.57
2022-09-18T06:50:54.561Z,10.67
2022-09-18T06:53:21.930Z,10.68
2022-09-18T06:55:48.976Z,10.74
2022-09-18T06:58:19.705Z,10.71
2022-09-18T07:00:46.656Z,10.74
2022-09-18T07:03:13.306Z,10.71
2022-09-18T07:05:46.718Z,10.70
2022-09-18T07:08:13.829Z,10.62
2022-09-18T07:10:41.095Z,10.51
2022-09-18T07:13:07.829Z,10.50
2022-09-18T07:15:34.556Z,10.53
2022-09-18T07:18:02.880Z,10.73
2022-09-18T07:20:29.744Z,10.62
2022-09-18T07:22:58.509Z,10.90
2022-09-18T07:25:30.823Z,11.94
2022-09-18T07:28:02.727Z,12.55
2022-09-18T07:30:29.164Z,12.86
2022-09-18T07:32:55.772Z,12.78
2022-09-18T07:35:22.538Z,12.96
2022-09-18T07:37:48.961Z,12.78
2022-09-18T07:40:15.552Z,13.00
2022-09-18T07:42:42.002Z,12.92
2022-09-18T07:45:09.071Z,12.77
2022-09-18T07:47:35.664Z,12.62
2022-09-18T07:50:02.726Z,13.01
2022-09-18T07:52:29.285Z,13.54
2022-09-18T07:54:56.969Z,13.77
2022-09-18T07:57:23.895Z,13.93
2022-09-18T07:59:50.489Z,14.05
2022-09-18T08:02:17.108Z,15.22
2022-09-18T08:04:44.028Z,15.50
2022-09-18T08:07:10.844Z,15.56
2022-09-18T08:09:37.274Z,15.34
2022-09-18T08:12:04.153Z,14.92
2022-09-18T08:14:30.705Z,14.46
2022-09-18T08:16:57.814Z,14.54
2022-09-18T08:19:24.778Z,14.30
2022-09-18T08:21:51.438Z,13.91
2022-09-18T08:24:17.979Z,13.89
2022-09-18T08:26:44.959Z,14.15
2022-09-18T08:29:18.821Z,15.46
2022-09-18T08:31:46.647Z,17.74
2022-09-18T08:34:13.614Z,19.42
2022-09-18T08:36:40.106Z,20.13
2022-09-18T08:39:06.653Z,19.51
2022-09-18T08:41:43.594Z,20.37
2022-09-18T08:44:12.844Z,21.01
2022-09-18T08:46:48.308Z,20.31
2022-09-18T08:49:34.809Z,19.58
2022-09-18T08:52:14.716Z,18.75
2022-09-18T08:55:01.471Z,17.51
2022-09-18T08:57:54.193Z,16.86
2022-09-18T09:00:23.678Z,16.15
2022-09-18T09:02:55.791Z,15.85
2022-09-18T09:05:27.448Z,17.17
2022-09-18T09:08:08.260Z,18.96
2022-09-18T09:10:42.382Z,18.60
2022-09-18T09:13:32.551Z,17.40
2022-09-18T09:16:06.873Z,16.67
2022-09-18T09:19:12.379Z,16.38
2022-09-18T09:22:13.857Z,17.16
2022-09-18T09:24:48.091Z,19.18
2022-09-18T09:27:19.948Z,19.98
2022-09-18T09:29:47.457Z,20.33
2022-09-18T09:32:31.067Z,21.02
2022-09-18T09:35:05.101Z,21.99
2022-09-18T09:37:39.950Z,21.61
2022-09-18T09:40:14.565Z,20.39
2022-09-18T09:42:46.469Z,19.37
2022-09-18T09:45:24.907Z,18.26
2022-09-18T09:48:16.493Z,17.50
2022-09-18T09:51:09.993Z,16.59
2022-09-18T09:53:36.551Z,16.39
2022-09-18T09:56:35.597Z,16.44
2022-09-18T09:59:20.493Z,16.90
2022-09-18T10:02:15.852Z,18.12
2022-09-18T10:04:50.649Z,18.98
2022-09-18T10:07:25.723Z,19.40
2022-09-18T10:10:05.223Z,20.85
2022-09-18T10:12:55.240Z,20.14
2022-09-18T10:15:24.786Z,19.42
2022-09-18T10:17:53.037Z,21.35
2022-09-18T10:20:27.780Z,22.37
2022-09-18T10:22:56.102Z,21.57
2022-09-18T10:25:40.508Z,21.06
2022-09-18T10:28:13.113Z,21.88
2022-09-18T10:30:59.000Z,22.78
2022-09-18T10:33:38.534Z,21.58
2022-09-18T10:36:14.249Z,23.63
2022-09-18T10:38:40.833Z,22.45
2022-09-18T10:41:12.218Z,21.71
2022-09-18T10:44:01.750Z,20.86
2022-09-18T10:46:33.176Z,21.73
2022-09-18T10:49:18.555Z,21.62
2022-09-18T10:51:45.367Z,19.56
2022-09-18T10:54:24.974Z,18.50
2022-09-18T10:56:52.269Z,17.44
2022-09-18T10:59:28.376Z,17.47
2022-09-18T11:01:57.229Z,16.88
2022-09-18T11:04:24.153Z,16.81
2022-09-18T11:06:51.212Z,17.80
2022-09-18T11:09:20.233Z,19.76
2022-09-18T11:11:51.487Z,20.08
2022-09-18T11:14:22.604Z,18.85
2022-09-18T11:16:52.042Z,17.96
2022-09-18T11:19:37.935Z,17.03
2022-09-18T11:22:06.962Z,15.52
2022-09-18T11:24:35.511Z,13.73
2022-09-18T11:27:12.289Z,13.14
2022-09-18T11:29:39.798Z,13.02
2022-09-18T11:32:19.552Z,13.73
2022-09-18T11:34:51.220Z,14.71
2022-09-18T11:37:51.043Z,14.69
2022-09-18T11:40:24.475Z,14.63
2022-09-18T11:42:54.021Z,14.52
2022-09-18T11:45:41.612Z,14.40
2022-09-18T11:48:34.799Z,14.55
2022-09-18T11:51:05.050Z,15.40
2022-09-18T11:53:40.917Z,15.87
2022-09-18T11:56:13.695Z,17.19
2022-09-18T11:58:56.223Z,18.01
2022-09-18T12:01:31.640Z,18.48
2022-09-18T12:04:21.375Z,17.90
2022-09-18T12:07:01.320Z,18.04
2022-09-18T12:09:49.014Z,18.22
2022-09-18T12:12:25.300Z,17.68
2022-09-18T12:15:07.747Z,17.55
2022-09-18T12:18:03.435Z,17.04
2022-09-18T12:20:57.239Z,16.98
2022-09-18T12:23:25.790Z,17.01
2022-09-18T12:26:04.894Z,17.78
2022-09-18T12:28:57.810Z,17.92
2022-09-18T12:31:59.115Z,18.83
2022-09-18T12:34:32.490Z,18.63
2022-09-18T12:37:04.784Z,19.01
2022-09-18T12:40:12.149Z,19.35
2022-09-18T12:43:13.008Z,19.09
2022-09-18T12:46:10.766Z,18.41
2022-09-18T12:48:45.608Z,18.06
2022-09-18T12:51:46.643Z,18.08
2022-09-18T12:54:17.128Z,18.23
2022-09-18T12:57:13.130Z,18.99
2022-09-18T12:59:58.890Z,19.11
2022-09-18T13:02:57.045Z,19.09
2022-09-18T13:05:39.622Z,18.45
2022-09-18T13:08:21.318Z,18.09
2022-09-18T13:10:51.563Z,18.27
2022-09-18T13:13:26.563Z,18.39
2022-09-18T13:16:26.165Z,17.97
2022-09-18T13:19:01.523Z,17.39
2022-09-18T13:21:31.355Z,17.11
2022-09-18T13:23:58.725Z,16.51
2022-09-18T13:26:28.614Z,16.67
2022-09-18T13:28:55.423Z,17.19
2022-09-18T13:31:27.888Z,17.03
2022-09-18T13:34:06.746Z,17.01
2022-09-18T13:36:39.549Z,17.24
2022-09-18T13:39:16.357Z,16.94
2022-09-18T13:41:48.958Z,16.34
2022-09-18T13:44:35.457Z,16.06
2022-09-18T13:47:14.088Z,16.03
2022-09-18T13:49:49.675Z,15.97
2022-09-18T13:52:34.114Z,15.81
2022-09-18T13:55:12.718Z,15.86
2022-09-18T13:57:44.159Z,15.83
2022-09-18T14:00:34.061Z,15.67
2022-09-18T14:03:27.234Z,15.54
2022-09-18T14:05:55.022Z,14.99
2022-09-18T14:08:22.302Z,14.93
2022-09-18T14:11:05.372Z,14.73
2022-09-18T14:13:51.147Z,14.53
2022-09-18T14:16:20.548Z,13.71
2022-09-18T14:18:47.071Z,13.56
2022-09-18T14:21:40.054Z,13.14
2022-09-18T14:24:43.673Z,12.95
2022-09-18T14:27:49.834Z,13.05
2022-09-18T14:30:18.346Z,13.07
2022-09-18T14:32:54.335Z,12.88
2022-09-18T14:35:55.287Z,12.86
2022-09-18T14:38:35.218Z,12.83
2022-09-18T14:41:19.241Z,12.72
2022-09-18T14:43:50.491Z,12.61
2022-09-18T14:46:22.267Z,12.41
2022-09-18T14:48:49.149Z,12.19
2022-09-18T14:51:24.475Z,12.07
2022-09-18T14:53:53.830Z,12.14
2022-09-18T14:56:26.873Z,12.06
2022-09-18T14:58:53.405Z,11.90
2022-09-18T15:01:23.668Z,11.96
2022-09-18T15:03:51.990Z,11.79
2022-09-18T15:06:24.584Z,11.62
2022-09-18T15:08:52.551Z,11.74
2022-09-18T15:11:20.980Z,11.75
2022-09-18T15:13:50.736Z,11.69
2022-09-18T15:16:20.199Z,11.69
2022-09-18T15:18:49.414Z,11.64
2022-09-18T15:21:33.564Z,11.45
2022-09-18T15:24:02.308Z,11.48
2022-09-18T15:26:32.836Z,11.57
2022-09-18T15:29:00.433Z,11.45
2022-09-18T15:31:30.129Z,11.47
2022-09-18T15:34:11.842Z,11.40
2022-09-18T15:36:40.938Z,11.51
2022-09-18T15:39:09.622Z,11.50
2022-09-18T15:41:41.508Z,11.49
2022-09-18T15:44:30.046Z,11.53
2022-09-18T15:46:56.576Z,11.56
2022-09-18T15:49:28.985Z,11.51
2022-09-18T15:51:56.112Z,11.53
2022-09-18T15:54:23.656Z,11.60
2022-09-18T15:56:58.828Z,11.58
2022-09-18T15:59:37.024Z,11.60
2022-09-18T16:02:37.492Z,11.68
2022-09-18T16:05:12.082Z,11.69
2022-09-18T16:07:39.904Z,11.64
2022-09-18T16:10:44.070Z,11.73
2022-09-18T16:13:10.534Z,11.70
2022-09-18T16:15:37.622Z,11.49
2022-09-18T16:18:16.279Z,11.53
2022-09-18T16:20:59.105Z,11.38
2022-09-18T16:23:33.885Z,11.53
2022-09-18T16:26:07.036Z,11.52
2022-09-18T16:28:46.108Z,11.61
2022-09-18T16:31:14.694Z,11.55
2022-09-18T16:33:57.755Z,11.62
2022-09-18T16:36:27.340Z,11.60
2022-09-18T16:38:55.421Z,11.57
2022-09-18T16:41:21.841Z,11.48
2022-09-18T16:43:48.694Z,11.53
2022-09-18T16:46:17.073Z,11.44
2022-09-18T16:48:44.728Z,11.47
2022-09-18T16:51:11.347Z,11.46
2022-09-18T16:53:38.244Z,11.45
2022-09-18T16:56:08.078Z,11.41
2022-09-18T16:58:37.722Z,11.38
2022-09-18T17:01:05.088Z,11.39
2022-09-18T17:03:32.645Z,11.40
2022-09-18T17:06:02.022Z,11.29
2022-09-18T17:08:30.279Z,11.25
2022-09-18T17:10:57.030Z,11.31
2022-09-18T17:13:23.610Z,11.16
2022-09-18T17:15:50.353Z,11.23
2022-09-18T17:18:17.056Z,11.14
2022-09-18T17:20:43.604Z,11.07
2022-09-18T17:23:10.114Z,11.13
2022-09-18T17:25:36.909Z,11.14
2022-09-18T17:28:03.489Z,11.16
2022-09-18T17:30:29.990Z,11.11
2022-09-18T17:32:56.691Z,11.11
2022-09-18T17:35:23.510Z,11.10
2022-09-18T17:37:51.679Z,11.15
2022-09-18T17:40:19.503Z,11.08
2022-09-18T17:42:46.101Z,11.11
2022-09-18T17:45:12.811Z,11.13
2022-09-18T17:47:39.353Z,11.08
2022-09-18T17:50:08.788Z,10.97
2022-09-18T17:52:36.475Z,10.95
2022-09-18T17:55:03.872Z,10.88
2022-09-18T17:57:31.991Z,10.91
2022-09-18T17:59:58.702Z,10.86
2022-09-18T18:02:25.590Z,11.03
2022-09-18T18:04:52.092Z,10.98
2022-09-18T18:07:18.568Z,10.98
2022-09-18T18:09:46.797Z,10.94
2022-09-18T18:12:14.270Z,10.94
2022-09-18T18:14:41.690Z,10.94
2022-09-18T18:17:08.639Z,11.05
2022-09-18T18:19:35.330Z,10.94
2022-09-18T18:22:02.155Z,10.81
2022-09-18T18:24:30.966Z,10.93
2022-09-18T18:26:57.600Z,10.76
2022-09-18T18:29:24.340Z,10.78
2022-09-18T18:31:51.768Z,10.78
2022-09-18T18:34:21.085Z,10.78
2022-09-18T18:36:50.007Z,10.86
2022-09-18T18:39:17.124Z,10.81
2022-09-18T18:41:44.932Z,10.70
2022-09-18T18:44:13.174Z,10.82
2022-09-18T18:46:40.112Z,10.71
2022-09-18T18:49:11.845Z,10.75
2022-09-18T18:51:43.626Z,10.56
2022-09-18T18:54:10.396Z,10.57
2022-09-18T18:56:38.480Z,10.60
2022-09-18T18:59:09.049Z,10.53
2022-09-18T19:01:36.221Z,10.41
2022-09-18T19:04:08.433Z,10.28
2022-09-18T19:06:36.450Z,10.32
2022-09-18T19:09:07.242Z,10.26
2022-09-18T19:11:38.078Z,10.36
2022-09-18T19:14:05.529Z,10.31
2022-09-18T19:16:32.474Z,10.35
2022-09-18T19:19:00.180Z,10.24
2022-09-18T19:21:27.877Z,10.17
2022-09-18T19:23:56.785Z,10.18
2022-09-18T19:26:25.432Z,10.16
2022-09-18T19:28:53.519Z,10.16
2022-09-18T19:31:21.335Z,10.10
2022-09-18T19:33:52.208Z,10.09
2022-09-18T19:36:20.565Z,10.16
2022-09-18T19:38:54.769Z,10.15
2022-09-18T19:41:38.923Z,10.12
2022-09-18T19:44:17.786Z,10.04
2022-09-18T19:46:46.160Z,10.09
2022-09-18T19:49:17.705Z,10.02
2022-09-18T19:51:45.299Z,10.00
2022-09-18T19:54:11.887Z,10.03
2022-09-18T19:56:43.208Z,9.98
2022-09-18T19:59:10.351Z,9.88
2022-09-18T20:01:36.945Z,9.80
2022-09-18T20:04:03.626Z,9.76
2022-09-18T20:06:32.215Z,9.77
2022-09-18T20:08:59.681Z,9.80
2022-09-18T20:11:26.134Z,9.78
2022-09-18T20:13:53.522Z,9.73
2022-09-18T20:16:21.081Z,9.66
2022-09-18T20:18:48.071Z,9.63
2022-09-18T20:21:17.551Z,9.69
2022-09-18T20:23:45.135Z,9.61
2022-09-18T20:26:14.798Z,9.58
2022-09-18T20:28:41.604Z,9.60
2022-09-18T20:31:12.716Z,9.56
2022-09-18T20:33:39.801Z,9.60
2022-09-18T20:36:07.885Z,9.57
2022-09-18T20:38:37.279Z,9.54
2022-09-18T20:41:07.079Z,9.50
2022-09-18T20:43:35.765Z,9.51
2022-09-18T20:46:05.399Z,9.49
2022-09-18T20:48:33.311Z,9.49
2022-09-18T20:51:00.698Z,9.43
2022-09-18T20:53:28.061Z,9.41
2022-09-18T20:55:58.496Z,9.36
2022-09-18T20:58:25.473Z,9.37
2022-09-18T21:00:54.170Z,9.34
2022-09-18T21:03:21.080Z,9.30
2022-09-18T21:05:55.693Z,9.28
2022-09-18T21:08:29.828Z,9.23
2022-09-18T21:10:56.293Z,9.22
2022-09-18T21:13:22.719Z,9.22
2022-09-18T21:15:49.140Z,9.25
2022-09-18T21:18:15.760Z,9.24
2022-09-18T21:20:43.366Z,9.25
2022-09-18T21:23:30.055Z,9.23
2022-09-18T21:25:56.768Z,9.26
2022-09-18T21:28:23.460Z,9.30
2022-09-18T21:30:50.023Z,9.35
2022-09-18T21:33:16.573Z,9.34
2022-09-18T21:35:50.964Z,9.27
2022-09-18T21:38:18.007Z,9.30
2022-09-18T21:40:45.211Z,9.34
2022-09-18T21:43:12.323Z,9.33
2022-09-18T21:45:38.713Z,9.37
2022-09-18T21:48:05.110Z,9.43
2022-09-18T21:50:34.661Z,9.48
2022-09-18T21:53:01.061Z,9.47
2022-09-18T21:55:27.564Z,9.52
2022-09-18T21:57:55.645Z,9.54
2022-09-18T22:00:22.084Z,9.56
2022-09-18T22:02:53.294Z,9.71
2022-09-18T22:05:19.751Z,9.75
2022-09-18T22:07:46.268Z,9.87
2022-09-18T22:10:14.587Z,9.97
2022-09-18T22:12:41.230Z,10.06
2022-09-18T22:15:08.157Z,10.08
2022-09-18T22:17:34.885Z,10.04
2022-09-18T22:20:01.447Z,10.11
2022-09-18T22:22:27.955Z,10.15
2022-09-18T22:24:55.439Z,10.20
2022-09-18T22:27:21.876Z,10.27
2022-09-18T22:29:48.378Z,10.35
2022-09-18T22:32:14.838Z,10.33
2022-09-18T22:34:41.622Z,10.45
2022-09-18T22:37:09.630Z,10.46
2022-09-18T22:39:36.070Z,10.49
2022-09-18T22:42:02.598Z,10.53
2022-09-18T22:44:29.021Z,10.51
2022-09-18T22:46:55.550Z,10.53
2022-09-18T22:49:22.949Z,10.58
2022-09-18T22:51:50.536Z,10.60
2022-09-18T22:54:17.227Z,10.58
2022-09-18T22:56:46.395Z,10.57
2022-09-18T22:59:15.883Z,10.48
2022-09-18T23:01:49.146Z,10.38
2022-09-18T23:04:18.416Z,10.36
2022-09-18T23:06:45.787Z,10.28
2022-09-18T23:09:13.730Z,10.17
2022-09-18T23:11:41.712Z,10.23
2022-09-18T23:14:12.186Z,10.13
2022-09-18T23:16:40.501Z,10.12
2022-09-18T23:19:11.749Z,10.11
2022-09-18T23:21:39.665Z,10.08
2022-09-18T23:24:09.073Z,10.13
2022-09-18T23:26:41.083Z,10.08
2022-09-18T23:29:09.788Z,10.04
2022-09-18T23:31:38.427Z,10.03
2022-09-18T23:34:14.776Z,10.03
2022-09-18T23:36:44.700Z,9.92
2022-09-18T23:39:14.071Z,9.87
2022-09-18T23:41:41.388Z,9.85
2022-09-18T23:44:10.255Z,9.92
2022-09-18T23:46:37.075Z,9.91
2022-09-18T23:49:04.850Z,9.83
2022-09-18T23:51:32.942Z,9.81
2022-09-18T23:54:01.299Z,9.87
2022-09-18T23:56:29.566Z,9.78
2022-09-18T23:59:00.310Z,9.89
